Aérodrome :
LOGIN :

S'inscrire | Disclaimer

   EN    FR    IT 

 










Légende :    VFR   VFR Marginal   IFR   IFR Intensif   IFR Très Intensif
Visi : 
Plafond : 
>= 8 km
>= 3000ft
5 à 8 km
1000 à 3000 ft
1500m à 5 km
500 à 1000 ft
800 à 1500m
200 à 500 ft
< 800m
< 200 ft
Symboles :   Orages  Brouillard  Fortes neiges  Fortes précipitations  Vent > 20 kt
SIGMETs :   Divers  Orages  Givrage  Turbulence  Onde Orograph.  Cendres Volcan.






- Altitude de l'aérodrome : 699 ft
- Code IATA : PAD


EDLP - Paderborn Lippstadt

DERNIER METAR :
  • 281350Z VRB02KT 1400 R24/P2000N FEW035 SCT040 16/08 Q1022

METARs EXPIRÉS :
  • 281320Z VRB02KT 9999 FEW032 16/08 Q1022
  • 281250Z VRB02KT 9999 SCT031 SCT036 16/08 Q1023
  • 281220Z VRB02KT 9999 FEW030 SCT043 16/08 Q1023
  • 281150Z 23003KT 160V290 9999 SCT027 15/09 Q1023
  • 281120Z 18004KT 120V200 9999 SCT024 16/10 Q1023

TAF TAF EDLP
Valide du 28 à 12h jusqu'au 29 à 12h UTC


281100Z 2812/2912 23004KT 9999 SCT030
BECMG 2816/2819 15006KT
BECMG 2908/2911 22010KT
PROB30
TEMPO 2909/2912 RA



MET'MAP, la Météo Aéronautique d'un coup d'oeil ! - Copyright ORBIFLY Décembre 2007 - Disclaimer

ORBIFLY MET'MAP TEAM :

Programmation & Développement : Alexandra Zaïnal
Sur une idée originale de : Baudouin d'Aumeries
Assistance à la programmation : Marc-Olivier Méhu
Soutien technique & logistique : Manuel Goepfert

Contact : metmap@orbifly.com




SOURCES & CREDITS :

   NOAA